Time;durP1;ratioP1;P1;durP2;ratioP2;P2;SDS_P1;SDS_P2;PMS_P1;PMS_P2;Temp;Humidity;BMP_temperature;BMP_pressure;BME280_temperature;BME280_humidity;BME280_pressure;Samples;Min_cycle;Max_cycle;Signal;HPM_P1;HPM_P2
2021/08/17 00:00:41;;;;;;;0.00;0.00;;;15.60;99.90;;;;;;5049470;28;20238;-73
2021/08/17 00:03:07;;;;;;;0.40;0.40;;;15.60;99.90;;;;;;5049405;28;20154;-73
2021/08/17 00:05:35;;;;;;;0.28;0.28;;;15.40;99.90;;;;;;5062197;28;20200;-74
2021/08/17 00:08:03;;;;;;;0.10;0.10;;;15.50;99.90;;;;;;5069488;28;20157;-74
2021/08/17 00:10:29;;;;;;;0.28;0.28;;;15.30;99.90;;;;;;5069315;28;20184;-73
2021/08/17 00:12:54;;;;;;;0.00;0.00;;;15.10;99.90;;;;;;5069392;28;20217;-73
2021/08/17 00:15:20;;;;;;;0.00;0.00;;;15.10;99.90;;;;;;5068813;28;20192;-73
2021/08/17 00:17:46;;;;;;;0.00;0.00;;;15.10;99.90;;;;;;5049531;28;20192;-73
2021/08/17 00:20:13;;;;;;;0.10;0.10;;;15.00;99.90;;;;;;5049176;28;20162;-73
2021/08/17 00:22:41;;;;;;;0.00;0.00;;;15.00;99.90;;;;;;5049170;28;20164;-73
2021/08/17 00:25:09;;;;;;;0.00;0.00;;;15.00;99.90;;;;;;5065219;28;20281;-73
2021/08/17 00:27:35;;;;;;;0.20;0.20;;;14.90;99.90;;;;;;5068909;28;20200;-73
2021/08/17 00:30:02;;;;;;;0.10;0.10;;;15.00;99.90;;;;;;5068959;28;20271;-73
2021/08/17 00:32:28;;;;;;;0.00;0.00;;;15.10;99.90;;;;;;5068887;28;20180;-73
2021/08/17 00:34:56;;;;;;;0.20;0.20;;;15.10;99.90;;;;;;5067171;28;20190;-73
2021/08/17 00:37:22;;;;;;;0.00;0.00;;;15.10;99.90;;;;;;5068815;28;20153;-73
2021/08/17 00:39:48;;;;;;;0.00;0.00;;;15.20;99.90;;;;;;5068755;28;20181;-73
2021/08/17 00:42:14;;;;;;;0.03;0.03;;;15.30;99.90;;;;;;5068641;28;20620;-73
2021/08/17 00:44:40;;;;;;;0.10;0.10;;;15.30;99.90;;;;;;5068724;28;20160;-74
2021/08/17 00:47:06;;;;;;;0.00;0.00;;;15.30;99.90;;;;;;5068466;28;20192;-73
2021/08/17 00:49:32;;;;;;;0.03;0.03;;;15.30;99.90;;;;;;5056905;28;20303;-73
2021/08/17 00:52:00;;;;;;;0.00;0.00;;;15.20;99.90;;;;;;5068496;28;20176;-73
2021/08/17 00:54:28;;;;;;;0.00;0.00;;;15.20;99.90;;;;;;5068466;28;20216;-74
2021/08/17 00:56:58;;;;;;;0.00;0.00;;;15.20;99.90;;;;;;5066976;28;20205;-74
2021/08/17 00:59:25;;;;;;;0.00;0.00;;;15.30;99.90;;;;;;5068445;28;20214;-74
2021/08/17 01:01:51;;;;;;;0.17;0.17;;;15.20;99.90;;;;;;5068337;28;20211;-73
2021/08/17 01:04:17;;;;;;;0.30;0.30;;;15.30;99.90;;;;;;5068281;28;20168;-73
2021/08/17 01:06:43;;;;;;;0.30;0.30;;;15.30;99.90;;;;;;5066868;28;20196;-74
2021/08/17 01:09:09;;;;;;;0.00;0.00;;;15.30;99.90;;;;;;5068379;28;20573;-73
2021/08/17 01:11:42;;;;;;;1.08;0.55;;;15.30;99.90;;;;;;5068393;28;20176;-73
2021/08/17 01:14:08;;;;;;;0.10;0.10;;;15.30;99.90;;;;;;5068252;28;20192;-74
2021/08/17 01:16:33;;;;;;;0.00;0.00;;;15.30;99.90;;;;;;5056370;28;20201;-73
2021/08/17 01:18:59;;;;;;;0.00;0.00;;;15.30;99.90;;;;;;5048250;28;20161;-73
2021/08/17 01:21:26;;;;;;;0.00;0.00;;;15.30;99.90;;;;;;5048232;28;20215;-73
2021/08/17 01:23:52;;;;;;;1.48;0.40;;;15.30;99.90;;;;;;5046767;28;20172;-72
2021/08/17 01:26:18;;;;;;;0.00;0.00;;;15.40;99.90;;;;;;5048425;28;20254;-73
2021/08/17 01:28:44;;;;;;;0.00;0.00;;;15.30;99.90;;;;;;5068151;28;20165;-72
2021/08/17 01:31:09;;;;;;;0.10;0.10;;;15.30;99.90;;;;;;5067958;28;20164;-73
2021/08/17 01:33:36;;;;;;;0.00;0.00;;;15.20;99.90;;;;;;5068086;28;20170;-73
2021/08/17 01:36:03;;;;;;;0.10;0.10;;;15.20;99.90;;;;;;5066529;28;20227;-73
2021/08/17 01:38:30;;;;;;;0.10;0.10;;;15.30;99.90;;;;;;5068091;28;20163;-73
2021/08/17 01:40:56;;;;;;;0.10;0.10;;;15.50;99.90;;;;;;5068153;28;20212;-74
2021/08/17 01:43:22;;;;;;;0.10;0.10;;;15.50;99.90;;;;;;5068112;28;20153;-75
2021/08/17 01:45:58;;;;;;;0.10;0.10;;;15.50;99.90;;;;;;5057880;28;20205;-74
2021/08/17 01:48:28;;;;;;;0.20;0.20;;;15.10;99.90;;;;;;5046400;28;20225;-73
2021/08/17 01:50:54;;;;;;;1.00;0.40;;;15.00;99.90;;;;;;5061735;28;20191;-73
2021/08/17 01:53:22;;;;;;;0.00;0.00;;;15.00;99.90;;;;;;5067898;28;20165;-73
2021/08/17 01:55:51;;;;;;;0.00;0.00;;;15.00;99.90;;;;;;5064227;28;20200;-73
2021/08/17 01:58:17;;;;;;;0.00;0.00;;;15.10;99.90;;;;;;5047447;28;20263;-73
2021/08/17 02:00:46;;;;;;;0.20;0.20;;;15.10;99.90;;;;;;5046272;28;20673;-73
2021/08/17 02:03:12;;;;;;;0.10;0.10;;;15.10;99.90;;;;;;5046374;28;20248;-73
2021/08/17 02:05:38;;;;;;;0.40;0.40;;;15.00;99.90;;;;;;5046265;28;20166;-73
2021/08/17 02:08:04;;;;;;;0.10;0.10;;;15.00;99.90;;;;;;5047582;28;20158;-74
2021/08/17 02:10:30;;;;;;;0.10;0.10;;;14.90;99.90;;;;;;5047613;28;20170;-74
2021/08/17 02:12:56;;;;;;;0.10;0.10;;;14.80;99.90;;;;;;5046437;28;20165;-74
2021/08/17 02:15:23;;;;;;;0.38;0.38;;;14.80;99.90;;;;;;5046430;28;20173;-74
2021/08/17 02:17:48;;;;;;;0.00;0.00;;;14.80;99.90;;;;;;5047626;28;20157;-74
2021/08/17 02:20:14;;;;;;;0.10;0.10;;;14.90;99.90;;;;;;5047619;28;20197;-74
2021/08/17 02:22:40;;;;;;;0.00;0.00;;;14.90;99.90;;;;;;5047625;28;20181;-74
2021/08/17 02:25:07;;;;;;;0.00;0.00;;;14.80;99.90;;;;;;5047671;28;20176;-73
2021/08/17 02:27:35;;;;;;;0.00;0.00;;;14.80;99.90;;;;;;5046247;28;20166;-74
2021/08/17 02:30:05;;;;;;;0.73;0.32;;;14.90;99.90;;;;;;5046032;28;20193;-74
2021/08/17 02:32:31;;;;;;;1.27;0.52;;;15.00;99.90;;;;;;5046228;28;20180;-74
2021/08/17 02:34:58;;;;;;;0.10;0.10;;;15.00;99.90;;;;;;5047363;28;20170;-73
2021/08/17 02:37:24;;;;;;;0.65;0.65;;;15.00;99.90;;;;;;5048450;28;20184;-72
2021/08/17 02:39:50;;;;;;;0.25;0.25;;;15.00;99.90;;;;;;5049533;28;20193;-72
2021/08/17 02:42:17;;;;;;;0.32;0.15;;;15.10;99.90;;;;;;5050754;28;20194;-74
2021/08/17 02:44:42;;;;;;;0.00;0.00;;;15.00;99.90;;;;;;5050981;28;20153;-73
2021/08/17 02:47:09;;;;;;;0.00;0.00;;;15.10;99.90;;;;;;5050764;28;20320;-74
2021/08/17 02:49:36;;;;;;;0.00;0.00;;;15.10;99.90;;;;;;5050342;28;20221;-72
2021/08/17 02:52:04;;;;;;;0.47;0.17;;;15.10;99.90;;;;;;5050750;28;20172;-74
2021/08/17 02:54:32;;;;;;;0.00;0.00;;;14.90;99.90;;;;;;5049282;28;20177;-74
2021/08/17 02:56:58;;;;;;;0.10;0.10;;;14.90;99.90;;;;;;5049265;28;20241;-72
2021/08/17 02:59:24;;;;;;;0.00;0.00;;;14.80;99.90;;;;;;5049092;28;20201;-72
2021/08/17 03:01:49;;;;;;;0.10;0.10;;;14.70;99.90;;;;;;5049445;28;20208;-72
2021/08/17 03:04:15;;;;;;;0.00;0.00;;;14.70;99.90;;;;;;5049915;28;20169;-72
2021/08/17 03:06:41;;;;;;;1.10;0.32;;;14.80;99.90;;;;;;5050640;28;20221;-71
2021/08/17 03:09:08;;;;;;;0.10;0.10;;;14.80;99.90;;;;;;5050327;28;20212;-71
2021/08/17 03:11:33;;;;;;;0.00;0.00;;;14.90;99.90;;;;;;5050608;28;20165;-72
2021/08/17 03:13:59;;;;;;;0.32;0.28;;;14.80;99.90;;;;;;5048851;28;20233;-72
2021/08/17 03:16:26;;;;;;;0.08;0.08;;;14.90;99.90;;;;;;5048956;28;20165;-72
2021/08/17 03:18:52;;;;;;;0.05;0.05;;;15.00;99.90;;;;;;5050379;28;20193;-72
2021/08/17 03:21:19;;;;;;;0.00;0.00;;;15.00;99.90;;;;;;5050280;28;20185;-72
2021/08/17 03:23:45;;;;;;;0.00;0.00;;;15.10;99.90;;;;;;5050277;28;20161;-72
2021/08/17 03:26:11;;;;;;;0.05;0.05;;;15.20;99.90;;;;;;5050427;28;20169;-72
2021/08/17 03:28:37;;;;;;;0.10;0.10;;;15.20;99.90;;;;;;5050192;28;20272;-72
2021/08/17 03:31:05;;;;;;;0.00;0.00;;;15.20;99.90;;;;;;5050349;28;20166;-72
2021/08/17 03:33:32;;;;;;;0.17;0.17;;;15.20;99.90;;;;;;5050157;28;20165;-72
2021/08/17 03:35:58;;;;;;;0.00;0.00;;;15.20;99.90;;;;;;5048878;28;20200;-72
2021/08/17 03:38:25;;;;;;;0.32;0.32;;;15.20;99.90;;;;;;5050209;28;20193;-72
2021/08/17 03:40:51;;;;;;;0.00;0.00;;;15.10;99.90;;;;;;5048714;28;20193;-72
2021/08/17 03:43:17;;;;;;;0.00;0.00;;;15.20;99.90;;;;;;5048778;28;20354;-73
2021/08/17 03:45:43;;;;;;;0.25;0.10;;;15.20;99.90;;;;;;5048343;28;20500;-73
2021/08/17 03:48:09;;;;;;;0.50;0.50;;;15.20;99.90;;;;;;5049439;28;20295;-73
2021/08/17 03:50:35;;;;;;;0.10;0.10;;;15.20;99.90;;;;;;5047791;28;20181;-74
2021/08/17 03:53:01;;;;;;;0.10;0.10;;;15.10;99.90;;;;;;5048377;28;20184;-74
2021/08/17 03:55:27;;;;;;;0.10;0.10;;;14.80;99.90;;;;;;5048518;28;20181;-73
2021/08/17 03:57:53;;;;;;;0.28;0.28;;;14.90;99.90;;;;;;5048151;28;20173;-73
2021/08/17 04:00:25;;;;;;;0.40;0.40;;;15.00;99.90;;;;;;5048027;28;20188;-74
2021/08/17 04:02:52;;;;;;;1.50;1.40;;;14.90;99.90;;;;;;5048082;28;20173;-72
2021/08/17 04:05:18;;;;;;;0.43;0.43;;;15.00;99.90;;;;;;5049554;28;20158;-72
2021/08/17 04:07:44;;;;;;;0.22;0.22;;;14.70;99.90;;;;;;5049653;28;20183;-73
2021/08/17 04:10:10;;;;;;;0.10;0.10;;;14.90;99.90;;;;;;5049243;28;20189;-72
2021/08/17 04:12:37;;;;;;;0.00;0.00;;;14.90;99.90;;;;;;5049489;28;20164;-72
2021/08/17 04:15:05;;;;;;;0.00;0.00;;;14.80;99.90;;;;;;5050540;28;20180;-73
2021/08/17 04:17:31;;;;;;;0.10;0.10;;;14.80;99.90;;;;;;5083938;28;20164;-71
2021/08/17 04:19:57;;;;;;;0.13;0.13;;;14.60;99.90;;;;;;5089232;28;20192;-72
2021/08/17 04:22:23;;;;;;;0.75;0.30;;;14.70;99.90;;;;;;5087696;28;20330;-72
2021/08/17 04:24:50;;;;;;;0.10;0.10;;;14.70;99.90;;;;;;5089332;28;20272;-72
2021/08/17 04:27:17;;;;;;;0.40;0.40;;;14.80;99.90;;;;;;5082119;28;20171;-72
2021/08/17 04:29:44;;;;;;;0.15;0.15;;;14.60;99.90;;;;;;5067596;28;20212;-71
2021/08/17 04:32:12;;;;;;;0.38;0.38;;;14.70;99.90;;;;;;5069092;28;20188;-74
2021/08/17 04:34:38;;;;;;;0.75;0.40;;;14.70;99.90;;;;;;5068932;28;20161;-72
2021/08/17 04:37:04;;;;;;;0.45;0.45;;;14.70;99.90;;;;;;5067601;28;20238;-72
2021/08/17 04:39:31;;;;;;;0.10;0.10;;;14.90;99.90;;;;;;5069051;28;20164;-72
2021/08/17 04:41:57;;;;;;;0.00;0.00;;;14.90;99.90;;;;;;5069058;28;20193;-73
2021/08/17 04:44:23;;;;;;;0.20;0.20;;;14.90;99.90;;;;;;5069001;28;20157;-72
2021/08/17 04:46:49;;;;;;;0.15;0.15;;;14.90;99.90;;;;;;5067616;28;20238;-72
2021/08/17 04:49:15;;;;;;;0.93;0.93;;;14.90;99.90;;;;;;5068719;28;20328;-73
2021/08/17 04:51:42;;;;;;;1.45;0.32;;;15.20;99.90;;;;;;5067559;28;20169;-73
2021/08/17 04:54:08;;;;;;;0.10;0.10;;;15.40;99.90;;;;;;5068756;28;20578;-72
2021/08/17 04:56:34;;;;;;;0.80;0.65;;;15.10;99.90;;;;;;5067311;28;20254;-72
2021/08/17 04:59:00;;;;;;;0.47;0.35;;;14.70;99.90;;;;;;5068618;28;20220;-73
2021/08/17 05:01:26;;;;;;;0.28;0.28;;;15.00;99.90;;;;;;5067119;28;20256;-73
2021/08/17 05:03:52;;;;;;;0.10;0.10;;;15.70;99.90;;;;;;5067109;28;20188;-73
2021/08/17 05:06:18;;;;;;;0.30;0.30;;;16.20;99.90;;;;;;5068525;28;20192;-73
2021/08/17 05:08:44;;;;;;;0.10;0.10;;;15.80;99.90;;;;;;5068384;28;20168;-73
2021/08/17 05:11:10;;;;;;;0.00;0.00;;;15.70;99.90;;;;;;5068459;28;20176;-73
2021/08/17 05:13:36;;;;;;;0.63;0.55;;;15.50;99.90;;;;;;5067422;28;20203;-73
2021/08/17 05:16:02;;;;;;;0.82;0.82;;;15.50;99.90;;;;;;5068188;28;20342;-72
2021/08/17 05:18:32;;;;;;;0.20;0.13;;;15.40;99.90;;;;;;5068278;28;20168;-73
2021/08/17 05:21:07;;;;;;;1.15;0.70;;;15.20;99.90;;;;;;5068140;28;20181;-73
2021/08/17 05:23:33;;;;;;;0.70;0.70;;;15.20;99.90;;;;;;5066898;28;20168;-73
2021/08/17 05:25:58;;;;;;;0.05;0.05;;;15.20;99.90;;;;;;5068228;28;20256;-73
2021/08/17 05:28:24;;;;;;;0.30;0.30;;;15.10;99.90;;;;;;5068193;28;20156;-73
2021/08/17 05:30:50;;;;;;;0.35;0.35;;;15.10;99.90;;;;;;5066816;28;20535;-72
2021/08/17 05:33:16;;;;;;;0.00;0.00;;;15.00;99.90;;;;;;5068306;28;20486;-73
2021/08/17 05:35:43;;;;;;;0.28;0.28;;;15.00;99.90;;;;;;5066704;28;20200;-73
2021/08/17 05:38:10;;;;;;;0.55;0.55;;;15.00;99.90;;;;;;5067979;28;20167;-73
2021/08/17 05:40:36;;;;;;;4.03;0.32;;;15.00;99.90;;;;;;5068045;28;20189;-74
2021/08/17 05:43:04;;;;;;;0.00;0.00;;;15.10;99.90;;;;;;5068151;28;20160;-74
2021/08/17 05:45:31;;;;;;;0.10;0.10;;;15.40;99.90;;;;;;5066660;28;20240;-74
2021/08/17 05:47:57;;;;;;;0.20;0.20;;;15.40;99.90;;;;;;5066643;28;20224;-73
2021/08/17 05:50:23;;;;;;;0.10;0.10;;;15.40;99.90;;;;;;5068053;28;20178;-74
2021/08/17 05:52:48;;;;;;;0.38;0.38;;;15.50;99.90;;;;;;5068041;28;20179;-74
2021/08/17 05:55:14;;;;;;;0.05;0.05;;;15.50;99.90;;;;;;5067859;28;20216;-74
2021/08/17 05:57:41;;;;;;;0.20;0.20;;;15.60;99.90;;;;;;5066584;28;20161;-74
2021/08/17 06:00:13;;;;;;;0.00;0.00;;;15.90;99.90;;;;;;5067903;28;20185;-74
2021/08/17 06:02:39;;;;;;;0.10;0.10;;;16.20;99.90;;;;;;5066675;28;20267;-75
2021/08/17 06:05:06;;;;;;;1.30;0.50;;;16.50;99.90;;;;;;5067844;28;20238;-74
2021/08/17 06:07:31;;;;;;;0.70;0.60;;;16.60;99.90;;;;;;5067749;28;20189;-74
2021/08/17 06:09:57;;;;;;;0.10;0.10;;;17.10;99.90;;;;;;5067886;28;20168;-74
2021/08/17 06:12:23;;;;;;;1.02;0.52;;;17.30;99.90;;;;;;5068789;28;20165;-74
2021/08/17 06:14:49;;;;;;;0.60;0.38;;;16.90;99.90;;;;;;5070156;28;20197;-75
2021/08/17 06:17:15;;;;;;;0.32;0.32;;;17.60;99.90;;;;;;5071538;28;20239;-74
2021/08/17 06:19:41;;;;;;;0.00;0.00;;;17.50;99.90;;;;;;5071727;28;20153;-75
2021/08/17 06:22:07;;;;;;;0.10;0.10;;;17.20;99.90;;;;;;5071515;28;20218;-74
2021/08/17 06:24:33;;;;;;;0.55;0.47;;;17.20;99.90;;;;;;5071349;28;20157;-75
2021/08/17 06:26:59;;;;;;;1.25;0.32;;;17.20;99.90;;;;;;5071122;28;20220;-75
2021/08/17 06:29:25;;;;;;;0.35;0.17;;;17.10;99.90;;;;;;5071455;28;20157;-75
2021/08/17 06:31:51;;;;;;;0.00;0.00;;;17.20;99.90;;;;;;5071555;28;20167;-74
2021/08/17 06:34:16;;;;;;;0.20;0.20;;;16.80;99.90;;;;;;5070830;28;20196;-75
2021/08/17 06:36:42;;;;;;;0.17;0.17;;;16.70;99.90;;;;;;5068506;28;20164;-75
2021/08/17 06:39:09;;;;;;;1.65;1.27;;;16.70;99.90;;;;;;5070890;28;20205;-75
2021/08/17 06:41:35;;;;;;;0.10;0.10;;;16.90;99.90;;;;;;5069308;28;20559;-74
2021/08/17 06:44:03;;;;;;;0.45;0.45;;;17.10;99.90;;;;;;5070091;28;20205;-76
2021/08/17 06:46:29;;;;;;;0.40;0.40;;;17.20;99.90;;;;;;5070576;28;20159;-74
2021/08/17 06:48:55;;;;;;;0.10;0.10;;;17.30;99.90;;;;;;5070416;28;20224;-74
2021/08/17 06:51:21;;;;;;;1.95;0.38;;;17.40;99.90;;;;;;5070891;28;20180;-75
2021/08/17 06:53:47;;;;;;;0.35;0.35;;;17.50;99.90;;;;;;5069188;28;20176;-74
2021/08/17 06:56:14;;;;;;;0.60;0.60;;;17.60;99.90;;;;;;5069421;28;20168;-75
2021/08/17 06:58:40;;;;;;;0.30;0.30;;;17.60;99.90;;;;;;5069380;28;20161;-74
2021/08/17 07:01:06;;;;;;;0.75;0.32;;;17.50;99.90;;;;;;5070794;28;20195;-74
2021/08/17 07:03:32;;;;;;;0.38;0.38;;;17.50;99.90;;;;;;5070913;28;20491;-74
2021/08/17 07:05:58;;;;;;;0.20;0.20;;;17.70;99.90;;;;;;5070540;28;20222;-75
2021/08/17 07:08:24;;;;;;;0.28;0.28;;;17.80;99.90;;;;;;5069177;28;20195;-75
2021/08/17 07:10:51;;;;;;;0.20;0.20;;;17.70;99.90;;;;;;5070283;28;20178;-75
2021/08/17 07:13:17;;;;;;;0.35;0.35;;;17.70;99.90;;;;;;5069225;28;20179;-74
2021/08/17 07:15:43;;;;;;;0.17;0.17;;;17.80;99.90;;;;;;5070234;28;20193;-75
2021/08/17 07:18:10;;;;;;;0.13;0.13;;;17.90;99.90;;;;;;5070208;28;20161;-74
2021/08/17 07:20:37;;;;;;;0.00;0.00;;;18.10;99.90;;;;;;5068772;28;20262;-74
2021/08/17 07:23:04;;;;;;;0.32;0.32;;;18.50;99.90;;;;;;5070043;28;20679;-74
2021/08/17 07:25:30;;;;;;;0.17;0.17;;;19.50;99.90;;;;;;5067606;28;20200;-73
2021/08/17 07:27:57;;;;;;;0.25;0.25;;;20.50;99.90;;;;;;5070204;28;20177;-74
2021/08/17 07:30:23;;;;;;;0.20;0.20;;;21.20;99.90;;;;;;5068302;28;20165;-73
2021/08/17 07:32:49;;;;;;;0.20;0.20;;;20.80;99.90;;;;;;5070073;28;20171;-73
2021/08/17 07:35:17;;;;;;;0.75;0.63;;;20.30;99.90;;;;;;5070063;28;20212;-74
2021/08/17 07:37:46;;;;;;;0.00;0.00;;;20.70;99.90;;;;;;5070444;28;20167;-74
2021/08/17 07:40:12;;;;;;;0.20;0.20;;;21.30;99.90;;;;;;5071348;28;20263;-74
2021/08/17 07:42:39;;;;;;;1.13;0.65;;;22.20;99.90;;;;;;5071079;28;20180;-74
2021/08/17 07:45:10;;;;;;;0.55;0.40;;;23.10;99.90;;;;;;5069493;28;20192;-76
2021/08/17 07:47:37;;;;;;;2.80;0.57;;;23.70;99.90;;;;;;5068215;28;20168;-74
2021/08/17 07:50:05;;;;;;;0.10;0.10;;;22.80;99.90;;;;;;5069636;28;20160;-73
2021/08/17 07:52:34;;;;;;;0.15;0.15;;;22.40;99.90;;;;;;5069697;28;20198;-74
2021/08/17 07:55:02;;;;;;;0.20;0.20;;;21.80;99.90;;;;;;5068011;28;20226;-74
2021/08/17 07:57:29;;;;;;;0.17;0.17;;;21.20;99.90;;;;;;5069168;28;20210;-73
2021/08/17 07:59:57;;;;;;;0.30;0.30;;;22.00;99.90;;;;;;5069515;28;20172;-74
2021/08/17 08:02:23;;;;;;;0.15;0.15;;;22.60;99.90;;;;;;5065482;28;20206;-74
2021/08/17 08:04:50;;;;;;;0.17;0.17;;;22.30;99.90;;;;;;5056136;28;20200;-76
2021/08/17 08:07:15;;;;;;;0.35;0.35;;;21.90;99.90;;;;;;5056975;28;20180;-77
2021/08/17 08:09:41;;;;;;;0.00;0.00;;;20.90;99.90;;;;;;5061707;28;20226;-77
2021/08/17 08:12:10;;;;;;;0.10;0.10;;;20.30;99.90;;;;;;5063925;28;20203;-76
2021/08/17 08:14:37;;;;;;;0.05;0.05;;;20.00;99.90;;;;;;5066579;28;20246;-77
2021/08/17 08:17:03;;;;;;;0.10;0.10;;;20.10;99.90;;;;;;5049231;28;20200;-75
2021/08/17 08:19:29;;;;;;;0.00;0.00;;;20.10;99.90;;;;;;5061709;28;20252;-77
2021/08/17 08:21:55;;;;;;;0.90;0.35;;;19.70;99.90;;;;;;5052223;28;20204;-77
2021/08/17 08:24:21;;;;;;;0.10;0.10;;;19.70;99.90;;;;;;5067829;28;20210;-76
2021/08/17 08:26:46;;;;;;;0.10;0.10;;;19.90;99.90;;;;;;5067684;28;20176;-77
2021/08/17 08:29:12;;;;;;;0.10;0.10;;;20.00;99.90;;;;;;5069306;28;20165;-77
2021/08/17 08:31:38;;;;;;;0.40;0.22;;;20.00;99.90;;;;;;5067886;28;20175;-79
2021/08/17 08:34:04;;;;;;;0.00;0.00;;;19.90;99.90;;;;;;5069160;28;20164;-77
2021/08/17 08:36:30;;;;;;;0.00;0.00;;;19.60;99.90;;;;;;5067200;28;20168;-80
2021/08/17 08:38:56;;;;;;;0.00;0.00;;;19.70;99.90;;;;;;5067523;28;20250;-77
2021/08/17 08:41:22;;;;;;;0.00;0.00;;;19.60;99.90;;;;;;5068662;28;20252;-77
2021/08/17 08:43:49;;;;;;;0.00;0.00;;;19.70;99.90;;;;;;5067439;28;20198;-77
2021/08/17 08:46:20;;;;;;;0.10;0.10;;;19.60;99.90;;;;;;5068677;28;20163;-76
2021/08/17 08:48:52;;;;;;;0.00;0.00;;;19.50;99.90;;;;;;5068471;28;20219;-77
2021/08/17 08:51:20;;;;;;;0.10;0.10;;;19.50;99.90;;;;;;5068326;28;20535;-77
2021/08/17 08:53:47;;;;;;;0.30;0.25;;;19.60;99.90;;;;;;5068681;28;20161;-77
2021/08/17 08:56:13;;;;;;;0.10;0.10;;;19.50;99.90;;;;;;5068492;28;20168;-78
2021/08/17 08:58:41;;;;;;;0.10;0.10;;;19.50;99.90;;;;;;5067928;28;20203;-78
2021/08/17 09:01:11;;;;;;;0.10;0.10;;;19.30;99.90;;;;;;5068827;28;20188;-77
2021/08/17 09:03:49;;;;;;;0.10;0.10;;;19.20;99.90;;;;;;5054696;28;20281;-77
2021/08/17 09:06:21;;;;;;;0.47;0.20;;;19.20;99.90;;;;;;5048582;28;20149;-78
2021/08/17 09:09:02;;;;;;;0.00;0.00;;;19.60;99.90;;;;;;5048919;28;20181;-78
2021/08/17 09:11:28;;;;;;;0.00;0.00;;;20.10;99.90;;;;;;5049036;28;20176;-78
2021/08/17 09:13:54;;;;;;;0.00;0.00;;;20.30;99.90;;;;;;5047160;28;20204;-78
2021/08/17 09:16:24;;;;;;;0.00;0.00;;;20.30;99.90;;;;;;5047353;28;20199;-77
2021/08/17 09:18:52;;;;;;;0.08;0.08;;;20.40;99.90;;;;;;5047834;28;20189;-79
2021/08/17 09:21:32;;;;;;;0.52;0.25;;;21.10;99.90;;;;;;5047895;28;20185;-77
2021/08/17 09:23:58;;;;;;;0.10;0.10;;;21.70;99.90;;;;;;5052311;28;20621;-77
2021/08/17 09:26:30;;;;;;;0.00;0.00;;;22.10;99.90;;;;;;5046647;28;20169;-77
2021/08/17 09:29:00;;;;;;;3.03;0.20;;;23.10;99.90;;;;;;5047855;28;20244;-77
2021/08/17 09:31:40;;;;;;;0.05;0.05;;;23.70;99.90;;;;;;5046562;28;20169;-76
2021/08/17 09:34:10;;;;;;;0.00;0.00;;;22.10;99.90;;;;;;5048056;28;20152;-76
2021/08/17 09:36:38;;;;;;;0.00;0.00;;;22.30;99.90;;;;;;5047942;28;20183;-78
2021/08/17 09:39:05;;;;;;;0.00;0.00;;;22.30;99.90;;;;;;5047897;28;20239;-78
2021/08/17 09:41:32;;;;;;;0.00;0.00;;;22.40;99.90;;;;;;5047777;28;20208;-78
2021/08/17 09:44:00;;;;;;;0.00;0.00;;;22.50;99.90;;;;;;5047825;28;20266;-78
2021/08/17 09:46:32;;;;;;;0.10;0.10;;;23.20;99.90;;;;;;5047694;28;20157;-78
2021/08/17 09:49:16;;;;;;;0.00;0.00;;;22.40;99.90;;;;;;5049250;28;20298;-78
2021/08/17 09:51:42;;;;;;;0.00;0.00;;;23.20;99.90;;;;;;5051272;28;20192;-78
2021/08/17 09:54:18;;;;;;;0.00;0.00;;;23.00;99.90;;;;;;5049971;28;20176;-77
2021/08/17 09:57:00;;;;;;;0.10;0.10;;;23.80;99.90;;;;;;5051433;28;20164;-78
2021/08/17 09:59:29;;;;;;;0.35;0.35;;;24.00;99.90;;;;;;5050071;28;20204;-74
2021/08/17 10:01:56;;;;;;;0.10;0.10;;;22.30;99.90;;;;;;5049962;28;20223;-75
2021/08/17 10:04:22;;;;;;;0.10;0.10;;;23.20;99.90;;;;;;5050259;28;20165;-75
2021/08/17 10:06:52;;;;;;;0.00;0.00;;;22.50;99.90;;;;;;5051131;28;20240;-75
2021/08/17 10:09:19;;;;;;;0.00;0.00;;;23.00;99.90;;;;;;5052843;28;20197;-75
2021/08/17 10:11:45;;;;;;;0.20;0.20;;;24.40;99.90;;;;;;5052647;28;20634;-75
2021/08/17 10:14:13;;;;;;;0.00;0.00;;;24.60;99.90;;;;;;5050049;28;20196;-75
2021/08/17 10:16:41;;;;;;;0.52;0.45;;;26.00;99.90;;;;;;5051306;28;20171;-75
2021/08/17 10:19:11;;;;;;;0.00;0.00;;;26.00;99.90;;;;;;5051149;28;20274;-75
2021/08/17 10:21:44;;;;;;;0.10;0.10;;;24.50;99.90;;;;;;5051074;28;20185;-75
2021/08/17 10:24:41;;;;;;;0.10;0.10;;;24.60;99.90;;;;;;5049508;28;20244;-76
2021/08/17 10:27:25;;;;;;;0.00;0.00;;;23.80;99.90;;;;;;5049632;28;20672;-79
2021/08/17 10:30:25;;;;;;;0.08;0.08;;;24.10;99.90;;;;;;5049391;28;20161;-76
2021/08/17 10:32:57;;;;;;;0.10;0.10;;;23.10;99.90;;;;;;5050975;28;20161;-75
2021/08/17 10:35:34;;;;;;;0.10;0.10;;;23.30;99.90;;;;;;5050945;28;20157;-75
2021/08/17 10:38:12;;;;;;;0.00;0.00;;;23.30;99.90;;;;;;5051005;28;20188;-74
2021/08/17 10:40:53;;;;;;;0.00;0.00;;;24.30;99.90;;;;;;5050967;28;20219;-75
2021/08/17 10:43:43;;;;;;;0.00;0.00;;;25.20;99.90;;;;;;5050729;28;20212;-76
2021/08/17 10:46:10;;;;;;;0.30;0.30;;;26.20;99.90;;;;;;5049084;28;20206;-74
2021/08/17 10:48:58;;;;;;;0.25;0.20;;;25.90;99.90;;;;;;5050211;28;20576;-75
2021/08/17 10:51:30;;;;;;;0.00;0.00;;;25.00;99.90;;;;;;5050504;28;20171;-76
2021/08/17 10:54:05;;;;;;;0.10;0.10;;;26.10;99.90;;;;;;5050553;28;20165;-76
2021/08/17 10:56:36;;;;;;;0.20;0.20;;;25.90;99.90;;;;;;5049018;28;20199;-76
2021/08/17 10:59:03;;;;;;;0.00;0.00;;;24.40;99.90;;;;;;5048779;28;20165;-75
2021/08/17 11:01:35;;;;;;;0.25;0.25;;;24.00;99.90;;;;;;5048931;28;20280;-77
2021/08/17 11:04:11;;;;;;;0.95;0.95;;;24.10;99.90;;;;;;5050428;28;20153;-76
2021/08/17 11:06:41;;;;;;;0.10;0.10;;;24.20;99.90;;;;;;5049292;28;20172;-77
2021/08/17 11:09:10;;;;;;;0.55;0.55;;;26.00;99.90;;;;;;5048987;28;20164;-76
2021/08/17 11:11:37;;;;;;;0.10;0.10;;;24.60;99.90;;;;;;5049055;28;20203;-77
2021/08/17 11:14:12;;;;;;;1.13;0.43;;;23.70;99.90;;;;;;5048836;28;20171;-76
2021/08/17 11:16:50;;;;;;;2.55;0.45;;;26.10;99.90;;;;;;5050334;28;20167;-76
2021/08/17 11:19:18;;;;;;;0.10;0.10;;;25.60;99.90;;;;;;5050178;28;20169;-76
2021/08/17 11:21:45;;;;;;;0.20;0.20;;;26.30;99.90;;;;;;5050074;28;20585;-76
2021/08/17 11:24:15;;;;;;;0.30;0.30;;;27.60;99.90;;;;;;5050465;28;20187;-76
2021/08/17 11:27:07;;;;;;;0.43;0.30;;;25.80;99.90;;;;;;5049048;28;20196;-76
2021/08/17 11:29:45;;;;;;;0.30;0.30;;;23.70;99.90;;;;;;5049805;28;20185;-76
2021/08/17 11:32:32;;;;;;;0.10;0.10;;;23.40;99.90;;;;;;5050317;28;20199;-76
2021/08/17 11:35:06;;;;;;;0.00;0.00;;;22.40;99.90;;;;;;5050275;28;20172;-76
2021/08/17 11:37:34;;;;;;;0.65;0.65;;;22.60;99.90;;;;;;5048782;28;20168;-76
2021/08/17 11:40:03;;;;;;;0.00;0.00;;;22.60;99.90;;;;;;5048612;28;20187;-75
2021/08/17 11:42:32;;;;;;;0.08;0.08;;;22.60;99.90;;;;;;5049748;28;20204;-76
2021/08/17 11:45:05;;;;;;;0.00;0.00;;;23.00;99.90;;;;;;5049887;28;20169;-76
2021/08/17 11:47:31;;;;;;;0.43;0.43;;;23.30;99.90;;;;;;5048528;28;20586;-76
2021/08/17 11:49:59;;;;;;;0.10;0.10;;;22.80;99.90;;;;;;5048297;28;20234;-76
2021/08/17 11:52:33;;;;;;;0.13;0.13;;;22.10;99.90;;;;;;5049646;28;20252;-76
2021/08/17 11:55:11;;;;;;;0.00;0.00;;;24.00;99.90;;;;;;5049679;28;20161;-75
2021/08/17 11:57:48;;;;;;;0.35;0.35;;;25.20;99.90;;;;;;5048341;28;20183;-76
2021/08/17 12:00:18;;;;;;;0.00;0.00;;;26.90;99.90;;;;;;5048153;28;20172;-76
2021/08/17 12:02:53;;;;;;;0.10;0.10;;;26.30;99.90;;;;;;5049410;28;20243;-74
2021/08/17 12:05:20;;;;;;;0.05;0.05;;;26.30;99.90;;;;;;5049515;28;20651;-75
2021/08/17 12:07:50;;;;;;;0.00;0.00;;;25.30;99.90;;;;;;5049477;28;20161;-76
2021/08/17 12:10:32;;;;;;;0.20;0.20;;;23.70;99.90;;;;;;5048793;28;20653;-75
2021/08/17 12:13:03;;;;;;;0.30;0.30;;;23.70;99.90;;;;;;5047913;28;20200;-75
2021/08/17 12:15:45;;;;;;;0.55;0.55;;;24.10;99.90;;;;;;5048058;28;20571;-78
2021/08/17 12:18:19;;;;;;;0.88;0.32;;;23.60;99.90;;;;;;5048145;28;20176;-79
2021/08/17 12:20:54;;;;;;;0.50;0.50;;;23.20;99.90;;;;;;5049518;28;20275;-77
2021/08/17 12:23:33;;;;;;;0.03;0.03;;;22.90;99.90;;;;;;5049481;28;20189;-78
2021/08/17 12:26:13;;;;;;;0.20;0.20;;;22.90;99.90;;;;;;5047868;28;20172;-77
2021/08/17 12:28:41;;;;;;;0.30;0.30;;;22.80;99.90;;;;;;5048948;28;20618;-73
2021/08/17 12:31:27;;;;;;;0.38;0.38;;;22.50;99.90;;;;;;5049173;28;20164;-73
2021/08/17 12:33:59;;;;;;;0.20;0.20;;;22.70;99.90;;;;;;5049626;28;20161;-73
2021/08/17 12:36:53;;;;;;;0.47;0.40;;;22.80;99.90;;;;;;5048005;28;20168;-73
2021/08/17 12:39:24;;;;;;;0.20;0.03;;;22.80;99.90;;;;;;5047269;28;20203;-72
2021/08/17 12:42:06;;;;;;;0.63;0.20;;;23.00;99.90;;;;;;5047130;28;20231;-71
2021/08/17 12:44:39;;;;;;;0.45;0.45;;;22.90;99.90;;;;;;5048560;28;20156;-72
2021/08/17 12:47:25;;;;;;;0.10;0.10;;;22.80;99.90;;;;;;5048467;28;20168;-72
2021/08/17 12:49:58;;;;;;;0.10;0.10;;;23.10;99.90;;;;;;5048309;28;20278;-71
2021/08/17 12:52:39;;;;;;;0.15;0.10;;;23.10;99.90;;;;;;5046946;28;20196;-73
2021/08/17 12:55:18;;;;;;;0.10;0.10;;;22.70;99.90;;;;;;5046901;28;20203;-73